createdAt,value
2022-08-25T00:01:53.103Z,7.50
2022-08-25T00:04:21.727Z,7.60
2022-08-25T00:06:49.340Z,7.27
2022-08-25T00:09:21.330Z,8.13
2022-08-25T00:11:49.274Z,6.80
2022-08-25T00:14:25.440Z,7.43
2022-08-25T00:16:52.218Z,7.40
2022-08-25T00:19:29.666Z,6.67
2022-08-25T00:21:56.534Z,7.30
2022-08-25T00:24:24.418Z,7.50
2022-08-25T00:26:54.865Z,6.97
2022-08-25T00:29:22.775Z,7.33
2022-08-25T00:31:49.433Z,7.73
2022-08-25T00:34:20.730Z,7.50
2022-08-25T00:36:47.537Z,7.73
2022-08-25T00:39:14.496Z,7.53
2022-08-25T00:41:43.001Z,7.60
2022-08-25T00:44:12.565Z,7.60
2022-08-25T00:46:43.694Z,6.53
2022-08-25T00:49:20.895Z,7.27
2022-08-25T00:51:58.729Z,7.30
2022-08-25T00:54:47.885Z,7.13
2022-08-25T00:57:18.370Z,7.57
2022-08-25T00:59:49.767Z,7.80
2022-08-25T01:02:16.981Z,7.50
2022-08-25T01:04:48.814Z,7.17
2022-08-25T01:07:19.458Z,7.43
2022-08-25T01:09:49.787Z,6.80
2022-08-25T01:12:16.414Z,7.10
2022-08-25T01:14:46.590Z,6.97
2022-08-25T01:17:14.015Z,7.60
2022-08-25T01:19:40.709Z,7.90
2022-08-25T01:22:07.993Z,7.67
2022-08-25T01:24:44.719Z,7.20
2022-08-25T01:27:11.476Z,7.47
2022-08-25T01:29:39.013Z,7.00
2022-08-25T01:32:08.975Z,6.67
2022-08-25T01:34:38.913Z,7.37
2022-08-25T01:37:05.608Z,6.87
2022-08-25T01:39:33.962Z,7.07
2022-08-25T01:42:06.579Z,6.93
2022-08-25T01:44:35.948Z,7.37
2022-08-25T01:47:04.502Z,7.17
2022-08-25T01:49:31.038Z,6.87
2022-08-25T01:52:05.232Z,7.10
2022-08-25T01:54:31.877Z,7.57
2022-08-25T01:56:59.440Z,7.03
2022-08-25T01:59:27.049Z,6.87
2022-08-25T02:01:59.910Z,6.53
2022-08-25T02:04:32.157Z,6.90
2022-08-25T02:07:00.304Z,6.90
2022-08-25T02:09:26.889Z,6.83
2022-08-25T02:11:54.053Z,6.80
2022-08-25T02:14:20.929Z,6.77
2022-08-25T02:16:50.810Z,6.57
2022-08-25T02:19:19.432Z,6.50
2022-08-25T02:21:46.786Z,6.80
2022-08-25T02:24:14.298Z,6.80
2022-08-25T02:26:41.557Z,7.40
2022-08-25T02:29:09.154Z,6.97
2022-08-25T02:31:36.354Z,6.50
2022-08-25T02:34:04.238Z,6.83
2022-08-25T02:36:32.286Z,6.80
2022-08-25T02:38:59.855Z,7.10
2022-08-25T02:41:31.112Z,7.20
2022-08-25T02:43:59.182Z,6.23
2022-08-25T02:46:25.978Z,6.97
2022-08-25T02:48:53.597Z,7.03
2022-08-25T02:51:22.560Z,6.97
2022-08-25T02:53:49.983Z,7.43
2022-08-25T02:56:18.548Z,6.07
2022-08-25T02:58:46.957Z,6.80
2022-08-25T03:01:15.458Z,6.87
2022-08-25T03:03:45.292Z,6.93
2022-08-25T03:06:14.899Z,6.40
2022-08-25T03:08:42.627Z,6.67
2022-08-25T03:11:10.035Z,6.97
2022-08-25T03:13:37.033Z,6.43
2022-08-25T03:16:05.567Z,6.97
2022-08-25T03:18:41.699Z,6.87
2022-08-25T03:21:10.206Z,6.73
2022-08-25T03:23:36.889Z,6.50
2022-08-25T03:26:22.262Z,6.33
2022-08-25T03:28:48.858Z,6.60
2022-08-25T03:31:15.613Z,6.57
2022-08-25T03:33:42.906Z,6.53
2022-08-25T03:36:11.976Z,6.03
2022-08-25T03:38:39.943Z,6.37
2022-08-25T03:41:15.674Z,6.30
2022-08-25T03:43:43.379Z,6.60
2022-08-25T03:46:20.066Z,6.73
2022-08-25T03:48:46.837Z,6.60
2022-08-25T03:51:19.525Z,6.40
2022-08-25T03:53:46.079Z,6.33
2022-08-25T03:56:13.216Z,6.90
2022-08-25T03:58:39.766Z,6.13
2022-08-25T04:01:06.449Z,6.43
2022-08-25T04:03:33.014Z,7.10
2022-08-25T04:06:04.686Z,6.77
2022-08-25T04:08:31.343Z,6.27
2022-08-25T04:10:58.245Z,6.90
2022-08-25T04:13:24.841Z,6.70
2022-08-25T04:15:51.442Z,6.27
2022-08-25T04:18:17.992Z,6.57
2022-08-25T04:20:46.675Z,6.30
2022-08-25T04:23:13.535Z,6.70
2022-08-25T04:25:44.017Z,6.83
2022-08-25T04:28:12.919Z,6.10
2022-08-25T04:30:43.637Z,6.20
2022-08-25T04:33:10.181Z,6.23
2022-08-25T04:35:36.877Z,6.90
2022-08-25T04:38:05.197Z,6.37
2022-08-25T04:40:32.096Z,6.63
2022-08-25T04:42:59.247Z,6.07
2022-08-25T04:45:25.900Z,6.30
2022-08-25T04:47:54.982Z,6.70
2022-08-25T04:50:21.782Z,6.00
2022-08-25T04:52:49.296Z,6.63
2022-08-25T04:55:16.098Z,6.73
2022-08-25T04:57:43.278Z,6.20
2022-08-25T05:00:10.817Z,6.00
2022-08-25T05:02:37.369Z,6.20
2022-08-25T05:05:04.165Z,6.17
2022-08-25T05:07:30.815Z,6.80
2022-08-25T05:09:57.553Z,6.13
2022-08-25T05:12:24.151Z,6.67
2022-08-25T05:14:53.824Z,6.80
2022-08-25T05:17:20.443Z,6.67
2022-08-25T05:19:49.109Z,6.33
2022-08-25T05:22:15.678Z,6.40
2022-08-25T05:24:42.218Z,7.03
2022-08-25T05:27:08.861Z,6.43
2022-08-25T05:29:35.558Z,6.93
2022-08-25T05:32:02.294Z,6.63
2022-08-25T05:34:30.096Z,6.10
2022-08-25T05:36:59.951Z,6.37
2022-08-25T05:39:27.598Z,7.37
2022-08-25T05:41:54.243Z,6.70
2022-08-25T05:44:21.521Z,6.30
2022-08-25T05:46:48.463Z,6.93
2022-08-25T05:49:15.044Z,6.47
2022-08-25T05:51:41.668Z,6.87
2022-08-25T05:54:08.315Z,6.57
2022-08-25T05:56:34.877Z,6.20
2022-08-25T05:59:03.227Z,6.47
2022-08-25T06:01:51.454Z,7.03
2022-08-25T06:04:19.355Z,6.90
2022-08-25T06:06:45.938Z,6.97
2022-08-25T06:09:12.623Z,6.67
2022-08-25T06:11:40.962Z,6.53
2022-08-25T06:14:09.404Z,6.90
2022-08-25T06:16:36.375Z,7.53
2022-08-25T06:19:03.325Z,6.97
2022-08-25T06:21:30.479Z,7.20
2022-08-25T06:23:57.125Z,7.30
2022-08-25T06:26:23.919Z,7.23
2022-08-25T06:28:53.881Z,6.30
2022-08-25T06:31:22.402Z,6.80
2022-08-25T06:33:50.058Z,7.47
2022-08-25T06:36:17.321Z,6.50
2022-08-25T06:38:43.927Z,7.10
2022-08-25T06:41:10.781Z,7.17
2022-08-25T06:43:45.000Z,7.73
2022-08-25T06:46:21.361Z,6.97
2022-08-25T06:48:48.657Z,6.97
2022-08-25T06:51:17.768Z,7.03
2022-08-25T06:53:46.282Z,7.23
2022-08-25T06:56:13.427Z,7.17
2022-08-25T06:58:40.015Z,7.73
2022-08-25T07:01:23.355Z,7.30
2022-08-25T07:03:57.915Z,7.87
2022-08-25T07:06:26.007Z,7.70
2022-08-25T07:08:52.930Z,7.97
2022-08-25T07:11:21.319Z,9.03
2022-08-25T07:13:48.957Z,7.77
2022-08-25T07:16:16.493Z,7.83
2022-08-25T07:18:44.697Z,7.47
2022-08-25T07:21:12.764Z,8.40
2022-08-25T07:23:40.875Z,8.67
2022-08-25T07:26:36.874Z,8.50
2022-08-25T07:29:11.514Z,8.50
2022-08-25T07:31:38.381Z,9.47
2022-08-25T07:34:25.554Z,9.17
2022-08-25T07:36:53.273Z,9.83
2022-08-25T07:39:22.147Z,9.43
2022-08-25T07:41:51.925Z,9.23
2022-08-25T07:44:21.633Z,7.40
2022-08-25T07:46:50.546Z,8.23
2022-08-25T07:49:23.222Z,8.53
2022-08-25T07:52:05.064Z,10.10
2022-08-25T07:54:35.443Z,9.70
2022-08-25T07:57:06.630Z,9.73
2022-08-25T07:59:39.256Z,8.97
2022-08-25T08:02:17.863Z,8.83
2022-08-25T08:04:49.508Z,9.47
2022-08-25T08:07:23.074Z,10.17
2022-08-25T08:10:00.369Z,9.77
2022-08-25T08:12:39.544Z,9.57
2022-08-25T08:15:10.259Z,10.13
2022-08-25T08:17:37.900Z,9.27
2022-08-25T08:20:08.951Z,9.90
2022-08-25T08:22:41.062Z,9.93
2022-08-25T08:25:10.555Z,10.83
2022-08-25T08:27:37.978Z,10.07
2022-08-25T08:30:06.268Z,9.77
2022-08-25T08:33:05.911Z,9.37
2022-08-25T08:35:19.410Z,8.67
2022-08-25T08:37:46.230Z,9.27
2022-08-25T08:40:19.542Z,9.60
2022-08-25T08:43:18.539Z,9.73
2022-08-25T08:45:50.879Z,9.60
2022-08-25T08:48:43.117Z,9.33
2022-08-25T08:51:24.572Z,9.50
2022-08-25T08:54:18.656Z,9.23
2022-08-25T08:56:48.897Z,8.43
2022-08-25T08:59:30.512Z,8.63
2022-08-25T09:02:03.913Z,9.00
2022-08-25T09:04:40.881Z,9.60
2022-08-25T09:07:14.250Z,8.30
2022-08-25T09:09:43.617Z,8.13
2022-08-25T09:12:48.037Z,8.83
2022-08-25T09:16:03.637Z,8.97
2022-08-25T09:19:05.464Z,8.83
2022-08-25T09:21:50.788Z,8.47
2022-08-25T09:24:25.046Z,8.83
2022-08-25T09:27:21.769Z,8.30
2022-08-25T09:29:55.422Z,8.53
2022-08-25T09:32:24.305Z,8.40
2022-08-25T09:34:59.442Z,8.13
2022-08-25T09:37:26.876Z,7.63
2022-08-25T09:39:55.063Z,7.60
2022-08-25T09:42:50.077Z,7.77
2022-08-25T09:45:17.202Z,7.93
2022-08-25T09:47:45.477Z,8.67
2022-08-25T09:50:20.073Z,8.57
2022-08-25T09:52:46.855Z,8.87
2022-08-25T09:55:30.431Z,8.80
2022-08-25T09:58:00.767Z,8.03
2022-08-25T10:00:33.828Z,7.60
2022-08-25T10:03:05.935Z,8.20
2022-08-25T10:05:36.529Z,7.63
2022-08-25T10:08:14.716Z,7.90
2022-08-25T10:10:54.858Z,8.83
2022-08-25T10:13:33.910Z,8.13
2022-08-25T10:16:20.100Z,8.33
2022-08-25T10:19:05.843Z,6.83
2022-08-25T10:21:33.056Z,7.10
2022-08-25T10:24:05.150Z,7.60
2022-08-25T10:26:42.974Z,8.10
2022-08-25T10:29:51.758Z,7.57
2022-08-25T10:32:18.341Z,8.80
2022-08-25T10:34:51.764Z,9.37
2022-08-25T10:37:28.296Z,8.93
2022-08-25T10:40:16.772Z,9.60
2022-08-25T10:43:07.680Z,9.10
2022-08-25T10:45:45.664Z,9.00
2022-08-25T10:48:36.977Z,9.87
2022-08-25T10:51:28.529Z,8.47
2022-08-25T10:54:15.286Z,8.50
2022-08-25T10:56:53.013Z,8.33
2022-08-25T10:59:35.085Z,8.17
2022-08-25T11:02:21.593Z,9.27
2022-08-25T11:05:02.140Z,8.40
2022-08-25T11:07:45.565Z,8.17
2022-08-25T11:11:08.532Z,8.33
2022-08-25T11:13:42.126Z,8.43
2022-08-25T11:16:18.873Z,8.67
2022-08-25T11:19:18.045Z,8.87
2022-08-25T11:22:13.037Z,8.17
2022-08-25T11:25:03.642Z,8.20
2022-08-25T11:27:55.345Z,8.73
2022-08-25T11:30:22.433Z,10.53
2022-08-25T11:32:54.605Z,8.70
2022-08-25T11:35:35.597Z,9.00
2022-08-25T11:38:17.553Z,9.17
2022-08-25T11:41:10.999Z,9.37
2022-08-25T11:43:47.498Z,8.33
2022-08-25T11:46:27.799Z,8.50
2022-08-25T11:49:41.647Z,10.63
2022-08-25T11:52:34.963Z,10.43
2022-08-25T11:55:23.132Z,9.27
2022-08-25T11:58:30.720Z,8.77
2022-08-25T12:00:59.843Z,9.37
2022-08-25T12:03:32.689Z,8.50
2022-08-25T12:06:17.081Z,9.23
2022-08-25T12:08:54.420Z,9.80
2022-08-25T12:11:54.541Z,8.50
2022-08-25T12:14:24.508Z,8.73
2022-08-25T12:16:54.837Z,11.13
2022-08-25T12:19:28.632Z,9.47
2022-08-25T12:22:19.189Z,10.53
2022-08-25T12:24:54.489Z,10.47
2022-08-25T12:27:40.243Z,10.20
2022-08-25T12:30:21.498Z,10.63
2022-08-25T12:33:20.161Z,10.60
2022-08-25T12:35:57.765Z,10.90
2022-08-25T12:38:35.057Z,10.13
2022-08-25T12:41:10.367Z,10.03
2022-08-25T12:43:49.067Z,10.30
2022-08-25T12:46:22.837Z,11.10
2022-08-25T12:49:29.106Z,10.40
2022-08-25T12:52:04.805Z,11.30
2022-08-25T12:55:05.393Z,11.13
2022-08-25T12:57:40.484Z,10.40
2022-08-25T13:00:21.289Z,10.60
2022-08-25T13:03:06.349Z,10.20
2022-08-25T13:05:43.028Z,10.13
2022-08-25T13:08:47.068Z,10.73
2022-08-25T13:11:24.899Z,10.53
2022-08-25T13:14:03.396Z,10.37
2022-08-25T13:16:30.849Z,10.53
2022-08-25T13:19:01.594Z,11.27
2022-08-25T13:21:31.514Z,10.10
2022-08-25T13:24:01.490Z,10.20
2022-08-25T13:26:37.818Z,9.80
2022-08-25T13:29:20.670Z,9.87
2022-08-25T13:31:57.567Z,9.17
2022-08-25T13:34:34.846Z,10.30
2022-08-25T13:37:31.297Z,10.10
2022-08-25T13:40:18.911Z,9.83
2022-08-25T13:42:54.383Z,9.53
2022-08-25T13:45:25.996Z,9.57
2022-08-25T13:47:56.226Z,9.93
2022-08-25T13:50:26.388Z,9.80
2022-08-25T13:53:13.915Z,9.90
2022-08-25T13:55:52.172Z,9.57
2022-08-25T13:58:44.830Z,10.23
2022-08-25T14:01:22.548Z,10.30
2022-08-25T14:04:33.417Z,9.23
2022-08-25T14:07:10.591Z,10.20
2022-08-25T14:09:57.659Z,9.30
2022-08-25T14:12:46.374Z,9.37
2022-08-25T14:15:20.109Z,10.27
2022-08-25T14:18:04.132Z,8.83
2022-08-25T14:20:34.357Z,9.57
2022-08-25T14:23:19.057Z,8.83
2022-08-25T14:25:50.628Z,9.20
2022-08-25T14:28:26.646Z,8.00
2022-08-25T14:30:58.448Z,8.60
2022-08-25T14:33:29.949Z,8.63
2022-08-25T14:35:59.147Z,8.23
2022-08-25T14:38:25.936Z,8.57
2022-08-25T14:40:53.467Z,8.67
2022-08-25T14:43:23.724Z,8.10
2022-08-25T14:45:51.223Z,7.97
2022-08-25T14:48:26.707Z,8.40
2022-08-25T14:50:55.701Z,8.13
2022-08-25T14:53:22.278Z,7.70
2022-08-25T14:55:53.082Z,8.33
2022-08-25T14:58:26.029Z,8.87
2022-08-25T15:00:54.600Z,8.53
2022-08-25T15:03:30.541Z,8.40
2022-08-25T15:06:00.351Z,8.00
2022-08-25T15:08:47.206Z,8.00
2022-08-25T15:11:14.819Z,7.97
2022-08-25T15:13:43.855Z,8.03
2022-08-25T15:16:22.035Z,8.00
2022-08-25T15:18:56.780Z,8.53
2022-08-25T15:21:23.550Z,7.87
2022-08-25T15:23:53.173Z,8.30
2022-08-25T15:26:25.020Z,8.03
2022-08-25T15:28:53.847Z,7.97
2022-08-25T15:31:24.313Z,8.43
2022-08-25T15:33:51.758Z,7.97
2022-08-25T15:36:24.674Z,8.43
2022-08-25T15:38:51.610Z,7.20
2022-08-25T15:41:27.092Z,8.43
2022-08-25T15:43:55.498Z,8.20
2022-08-25T15:46:24.859Z,8.50
2022-08-25T15:48:51.817Z,9.03
2022-08-25T15:51:19.090Z,10.33
2022-08-25T15:53:46.687Z,7.60
2022-08-25T15:56:16.101Z,9.43
2022-08-25T15:58:54.090Z,9.33
2022-08-25T16:01:23.622Z,10.57
2022-08-25T16:03:52.050Z,9.37
2022-08-25T16:06:19.377Z,9.33
2022-08-25T16:08:46.053Z,9.50
2022-08-25T16:11:18.768Z,10.10
2022-08-25T16:13:49.301Z,9.43
2022-08-25T16:16:19.311Z,8.40
2022-08-25T16:18:46.481Z,10.00
2022-08-25T16:21:17.774Z,10.43
2022-08-25T16:23:45.166Z,9.70
2022-08-25T16:26:13.841Z,9.97
2022-08-25T16:28:43.953Z,9.93
2022-08-25T16:31:13.077Z,10.17
2022-08-25T16:36:15.316Z,9.60
2022-08-25T16:38:43.154Z,9.40
2022-08-25T16:41:22.262Z,10.03
2022-08-25T16:43:50.098Z,9.97
2022-08-25T16:46:19.519Z,10.17
2022-08-25T16:48:46.640Z,9.80
2022-08-25T16:51:19.271Z,9.20
2022-08-25T16:54:08.471Z,10.13
2022-08-25T16:56:37.128Z,9.00
2022-08-25T16:59:04.898Z,8.73
2022-08-25T17:01:36.386Z,9.73
2022-08-25T17:04:04.901Z,9.23
2022-08-25T17:06:37.162Z,8.97
2022-08-25T17:09:07.678Z,9.40
2022-08-25T17:11:36.664Z,8.87
2022-08-25T17:14:06.820Z,9.27
2022-08-25T17:16:40.096Z,9.17
2022-08-25T17:19:16.043Z,9.60
2022-08-25T17:21:45.937Z,7.93
2022-08-25T17:24:15.230Z,9.07
2022-08-25T17:26:43.049Z,8.63
2022-08-25T17:29:11.442Z,8.97
2022-08-25T17:31:39.995Z,8.73
2022-08-25T17:34:10.498Z,8.60
2022-08-25T17:36:41.270Z,8.40
2022-08-25T17:39:10.240Z,8.10
2022-08-25T17:41:37.589Z,8.20
2022-08-25T17:44:05.249Z,8.23
2022-08-25T17:46:32.770Z,8.10
2022-08-25T17:48:59.615Z,8.23
2022-08-25T17:51:31.812Z,8.03
2022-08-25T17:53:59.141Z,7.87
2022-08-25T17:56:27.549Z,8.03
2022-08-25T17:58:56.111Z,9.50
2022-08-25T18:01:29.132Z,8.97
2022-08-25T18:03:59.136Z,7.40
2022-08-25T18:06:29.365Z,7.97
2022-08-25T18:09:00.015Z,7.90
2022-08-25T18:11:30.199Z,7.97
2022-08-25T18:13:57.983Z,7.63
2022-08-25T18:16:26.180Z,7.73
2022-08-25T18:18:55.165Z,7.70
2022-08-25T18:21:25.296Z,11.23
2022-08-25T18:23:57.146Z,11.20
2022-08-25T18:26:25.582Z,12.00
2022-08-25T18:28:52.235Z,12.77
2022-08-25T18:31:19.776Z,15.03
2022-08-25T18:33:46.864Z,12.77
2022-08-25T18:36:14.008Z,13.33
2022-08-25T18:38:59.801Z,15.43
2022-08-25T18:41:34.227Z,17.77
2022-08-25T18:44:00.935Z,17.07
2022-08-25T18:46:27.660Z,17.00
2022-08-25T18:48:55.511Z,84.07
2022-08-25T18:51:23.514Z,156.50
2022-08-25T18:53:51.281Z,232.70
2022-08-25T18:56:22.624Z,281.43
2022-08-25T18:58:49.385Z,513.17
2022-08-25T19:01:18.916Z,482.90
2022-08-25T19:03:45.779Z,325.33
2022-08-25T19:06:12.371Z,273.53
2022-08-25T19:08:41.769Z,270.97
2022-08-25T19:11:09.733Z,248.60
2022-08-25T19:13:37.454Z,204.67
2022-08-25T19:16:20.773Z,221.53
2022-08-25T19:18:48.628Z,240.00
2022-08-25T19:21:15.367Z,204.53
2022-08-25T19:23:42.053Z,166.17
2022-08-25T19:26:16.871Z,144.03
2022-08-25T19:28:45.681Z,122.43
2022-08-25T19:31:15.350Z,114.37
2022-08-25T19:33:45.458Z,110.03
2022-08-25T19:36:14.108Z,90.67
2022-08-25T19:38:45.235Z,89.10
2022-08-25T19:41:14.484Z,75.70
2022-08-25T19:43:55.662Z,63.73
2022-08-25T19:46:23.200Z,57.47
2022-08-25T19:48:50.593Z,57.13
2022-08-25T19:51:19.126Z,48.37
2022-08-25T19:53:46.742Z,43.20
2022-08-25T19:56:20.218Z,44.87
2022-08-25T19:58:46.759Z,40.50
2022-08-25T20:01:14.205Z,36.83
2022-08-25T20:03:44.887Z,35.23
2022-08-25T20:06:11.516Z,31.97
2022-08-25T20:08:43.063Z,30.67
2022-08-25T20:11:10.719Z,29.40
2022-08-25T20:13:37.584Z,27.63
2022-08-25T20:16:05.548Z,25.27
2022-08-25T20:18:32.701Z,23.93
2022-08-25T20:21:00.486Z,23.70
2022-08-25T20:23:46.199Z,22.80
2022-08-25T20:26:12.857Z,20.73
2022-08-25T20:28:42.099Z,18.77
2022-08-25T20:31:09.378Z,18.63
2022-08-25T20:33:36.196Z,17.13
2022-08-25T20:36:04.649Z,17.47
2022-08-25T20:38:31.977Z,16.93
2022-08-25T20:41:01.276Z,17.13
2022-08-25T20:43:29.676Z,16.53
2022-08-25T20:46:01.103Z,14.90
2022-08-25T20:48:28.200Z,14.60
2022-08-25T20:50:57.502Z,14.43
2022-08-25T20:53:25.635Z,14.47
2022-08-25T20:55:52.354Z,14.40
2022-08-25T20:58:18.970Z,13.20
2022-08-25T21:00:46.453Z,14.47
2022-08-25T21:03:13.528Z,12.50
2022-08-25T21:05:41.174Z,13.63
2022-08-25T21:08:08.742Z,13.87
2022-08-25T21:10:35.647Z,11.80
2022-08-25T21:13:02.909Z,11.33
2022-08-25T21:15:29.937Z,12.07
2022-08-25T21:17:56.666Z,12.83
2022-08-25T21:20:25.209Z,11.97
2022-08-25T21:22:53.268Z,11.43
2022-08-25T21:25:21.643Z,11.47
2022-08-25T21:27:49.326Z,11.70
2022-08-25T21:30:17.166Z,12.33
2022-08-25T21:32:52.955Z,10.13
2022-08-25T21:35:20.183Z,11.05
2022-08-25T21:37:46.756Z,10.30
2022-08-25T21:40:20.486Z,10.80
2022-08-25T21:42:47.229Z,10.60
2022-08-25T21:45:14.303Z,10.77
2022-08-25T21:47:42.430Z,10.07
2022-08-25T21:50:11.733Z,10.63
2022-08-25T21:52:38.849Z,10.53
2022-08-25T21:55:08.096Z,10.53
2022-08-25T21:57:42.671Z,9.80
2022-08-25T22:00:11.570Z,9.83
2022-08-25T22:02:38.738Z,10.30
2022-08-25T22:05:09.096Z,9.63
2022-08-25T22:07:40.441Z,9.07
2022-08-25T22:10:09.483Z,9.40
2022-08-25T22:12:43.997Z,9.70
2022-08-25T22:15:12.489Z,9.77
2022-08-25T22:17:40.442Z,8.93
2022-08-25T22:20:08.831Z,9.77
2022-08-25T22:22:36.047Z,10.40
2022-08-25T22:25:03.263Z,9.20
2022-08-25T22:27:31.706Z,9.60
2022-08-25T22:29:58.631Z,9.83
2022-08-25T22:32:25.543Z,8.87
2022-08-25T22:34:52.716Z,9.27
2022-08-25T22:37:19.451Z,9.07
2022-08-25T22:39:46.618Z,9.03
2022-08-25T22:42:13.589Z,8.73
2022-08-25T22:44:42.353Z,8.57
2022-08-25T22:47:09.565Z,9.63
2022-08-25T22:49:39.714Z,9.73
2022-08-25T22:52:07.729Z,8.80
2022-08-25T22:54:40.828Z,9.20
2022-08-25T22:57:07.676Z,8.77
2022-08-25T22:59:34.402Z,9.60
2022-08-25T23:02:01.106Z,8.50
2022-08-25T23:04:27.722Z,8.40
2022-08-25T23:06:54.380Z,8.37
2022-08-25T23:09:21.520Z,8.47
2022-08-25T23:11:48.869Z,8.67
2022-08-25T23:14:18.423Z,8.83
2022-08-25T23:16:45.085Z,8.23
2022-08-25T23:19:13.766Z,9.07
2022-08-25T23:22:00.610Z,8.60
2022-08-25T23:24:29.610Z,8.60
2022-08-25T23:26:59.306Z,7.77
2022-08-25T23:29:27.429Z,7.73
2022-08-25T23:31:54.289Z,7.67
2022-08-25T23:34:21.757Z,7.97
2022-08-25T23:36:48.977Z,8.57
2022-08-25T23:39:15.577Z,8.27
2022-08-25T23:41:42.355Z,7.23
2022-08-25T23:44:11.549Z,7.60
2022-08-25T23:46:39.746Z,8.20
2022-08-25T23:49:08.213Z,7.47
2022-08-25T23:51:38.235Z,7.87
2022-08-25T23:54:09.565Z,7.93
2022-08-25T23:56:44.551Z,7.97
2022-08-25T23:59:19.494Z,8.17
